Airfield :







YOU CAN JOIN US ON...

 
LOGIN :

Register | Disclaimer

   EN    FR    IT 

 









Legend :    VFR   Marginal VFR   IFR   Intensive IFR   Very Intensive IFR
Visi :
Ceiling :
>= 8 km
>= 3000ft
5 to 8 km
1000 to 3000 ft
1500m to 5 km
500 to 1000 ft
800 to 1500m
200 to 500 ft
< 800m
< 200 ft
Symbols :   Thunderstorms  Fog  Heavy snow  Heavy precipitations  Wind > 20 kt






- Airport Elevation : 76 ft
- IATA code : EGS


BIEG - Egilsstaðir

CURRENT METAR :
  • 092100Z VRB05KT 3000 -SN VV005 01/00 Q0988 R04/490493 RMK SAND ON RWY, WIND GAGNHEIDI 10033G52KT

EXPIRED METARs :
  • 092000Z VRB05G15KT 4000 -SN BKN010 OVC018 01/M01 Q0990 R04/790295 RMK SAND ON RWY WIND GAGNHEIDI 12028G45KT
  • 091900Z 32010G24KT 270V350 9999 -SN BKN015 OVC025 02/M01 Q0992 R04/790295 RMK SAND ON RWY WIND GAGNHEIDI 12044G54KT

TAF TAF BIEG
Valid from the 09 at 21:00 until the 10 at 21:00 UTC


091958Z 0921/1021 14020G35KT 8000 SN BKN010 OVC030 TX02/0921Z TNM07/1020Z
PROB30
TEMPO 0921/1001 09035G50KT
BECMG 1001/1003 06015KT
TEMPO 1003/1011 1200 SN BKN005 OVC010
BECMG 1007/1009 20016KT
BECMG 1010/1012 9999 NSW FEW035 SCT050
BECMG 1014/1016 20005KT



MET'MAP, your aeronautical weather chart ! - Copyright ORBIFLY December 2007 - Disclaimer

ORBIFLY MET'MAP TEAM :

Programming & Development : Alexandra Zaïnal
Concept & original design : Baudouin d'Aumeries
Assistance for programming : Marc-Olivier Méhu
Technical & hardware support : Manuel Goepfert

Contact : metmap@orbifly.com




SOURCES & CREDITS :

   NOAA